Time;durP1;ratioP1;P1;durP2;ratioP2;P2;SDS_P1;SDS_P2;PMS_P1;PMS_P2;Temp;Humidity;BMP_temperature;BMP_pressure;BME280_temperature;BME280_humidity;BME280_pressure;Samples;Min_cycle;Max_cycle;Signal;HPM_P1;HPM_P2
2022/03/16 00:00:22;;;;;;;29.70;16.45;;;;;;;12.88;48.86;100610.03;4995242;28;102050;-84
2022/03/16 00:02:49;;;;;;;26.52;16.30;;;;;;;12.88;48.33;100615.31;4964614;28;101597;-83
2022/03/16 00:05:15;;;;;;;25.15;14.77;;;;;;;12.85;48.33;100613.66;4973297;28;97162;-84
2022/03/16 00:07:41;;;;;;;24.98;16.17;;;;;;;12.78;48.65;100606.91;4962218;28;97037;-83
2022/03/16 00:10:10;;;;;;;29.98;16.95;;;;;;;12.71;49.42;100604.56;4990402;28;98207;-82
2022/03/16 00:12:37;;;;;;;30.88;18.27;;;;;;;12.81;49.25;100621.75;4965821;28;101400;-83
2022/03/16 00:15:03;;;;;;;30.25;18.33;;;;;;;12.73;49.88;100598.31;4964899;28;97390;-84
2022/03/16 00:17:29;;;;;;;36.15;19.90;;;;;;;12.74;49.84;100614.97;4957378;28;96765;-82
2022/03/16 00:19:54;;;;;;;32.13;18.02;;;;;;;12.77;50.29;100623.66;4942602;28;100041;-82
2022/03/16 00:22:20;;;;;;;33.17;20.10;;;;;;;12.78;50.57;100624.50;4974914;28;97349;-81
2022/03/16 00:24:46;;;;;;;29.63;18.23;;;;;;;12.77;50.31;100628.91;4942525;28;96812;-82
2022/03/16 00:27:11;;;;;;;31.35;18.50;;;;;;;12.73;50.50;100623.81;4976491;28;96978;-82
2022/03/16 00:29:37;;;;;;;29.88;19.00;;;;;;;12.47;51.03;100586.16;4943395;28;101454;-83
2022/03/16 00:32:03;;;;;;;24.48;17.35;;;;;;;12.64;50.87;100627.66;4976645;28;97563;-82
2022/03/16 00:34:29;;;;;;;28.60;18.67;;;;;;;12.61;51.18;100638.31;4942624;28;97269;-81
2022/03/16 00:36:54;;;;;;;31.70;18.13;;;;;;;12.60;51.41;100634.81;4962869;28;96885;-82
2022/03/16 00:39:20;;;;;;;33.55;18.27;;;;;;;12.56;51.26;100625.28;4980525;28;97869;-83
2022/03/16 00:41:46;;;;;;;34.10;21.02;;;;;;;12.44;51.77;100609.97;4991246;28;98186;-84
2022/03/16 00:44:11;;;;;;;30.40;17.92;;;;;;;12.55;51.86;100609.56;4949088;28;97226;-85
2022/03/16 00:46:38;;;;;;;34.95;20.58;;;;;;;12.60;51.28;100618.16;4980380;28;97609;-82
2022/03/16 00:49:04;;;;;;;32.78;18.65;;;;;;;12.60;51.75;100615.53;4951273;28;101135;-82
2022/03/16 00:51:31;;;;;;;27.90;18.52;;;;;;;12.30;51.86;100581.50;4977987;28;102156;-82
2022/03/16 00:53:57;;;;;;;35.28;18.75;;;;;;;12.57;51.92;100618.28;4967153;28;97174;-81
2022/03/16 00:56:22;;;;;;;31.05;18.73;;;;;;;12.52;52.27;100618.44;4968294;28;97314;-82
2022/03/16 00:58:49;;;;;;;32.10;19.13;;;;;;;12.37;52.28;100592.69;4959118;28;101498;-82
2022/03/16 01:01:15;;;;;;;27.58;17.50;;;;;;;12.53;52.14;100629.81;4994155;28;98380;-82
2022/03/16 01:03:42;;;;;;;29.98;17.92;;;;;;;12.52;52.82;100628.97;4977247;28;97165;-83
2022/03/16 01:06:15;;;;;;;29.67;18.73;;;;;;;12.44;53.39;100615.22;4961313;28;96961;-80
2022/03/16 01:08:43;;;;;;;29.73;18.23;;;;;;;12.43;53.56;100624.91;4977321;28;101321;-83
2022/03/16 01:11:11;;;;;;;33.00;19.27;;;;;;;12.41;53.56;100625.88;4960070;28;97455;-82
2022/03/16 01:13:37;;;;;;;28.85;19.10;;;;;;;12.32;53.72;100624.44;4992274;28;97146;-82
2022/03/16 01:16:02;;;;;;;26.60;18.13;;;;;;;12.30;53.92;100613.09;4975589;28;96976;-81
2022/03/16 01:18:28;;;;;;;28.70;18.90;;;;;;;12.30;54.21;100614.88;4969339;28;101336;-82
2022/03/16 01:20:54;;;;;;;33.00;19.27;;;;;;;12.35;53.54;100619.06;4966040;28;101697;-81
2022/03/16 01:23:19;;;;;;;34.30;20.13;;;;;;;12.29;53.86;100613.16;4962096;28;97306;-81
2022/03/16 01:25:45;;;;;;;31.15;18.92;;;;;;;12.21;54.15;100597.66;4965550;28;98729;-83
2022/03/16 01:28:10;;;;;;;30.27;19.17;;;;;;;12.26;54.27;100613.28;4954457;28;101686;-83
2022/03/16 01:30:36;;;;;;;31.17;20.08;;;;;;;12.26;54.52;100615.91;4972537;28;101850;-83
2022/03/16 01:33:03;;;;;;;30.42;19.42;;;;;;;12.15;54.72;100597.88;4993667;28;97145;-83
2022/03/16 01:35:29;;;;;;;29.15;20.33;;;;;;;12.22;54.94;100625.69;5000586;28;96839;-82
2022/03/16 01:37:54;;;;;;;32.03;19.83;;;;;;;12.26;55.33;100613.28;4991513;28;97498;-82
2022/03/16 01:40:20;;;;;;;34.10;19.38;;;;;;;12.13;55.90;100594.41;4962851;28;100779;-83
2022/03/16 01:42:46;;;;;;;32.38;20.08;;;;;;;12.18;54.95;100614.41;4964772;28;97021;-83
2022/03/16 01:45:12;;;;;;;33.17;18.58;;;;;;;11.99;54.96;100585.28;4970388;28;96967;-83
2022/03/16 01:47:37;;;;;;;32.28;20.05;;;;;;;12.03;55.00;100611.47;4976030;28;101416;-82
2022/03/16 01:50:04;;;;;;;27.52;18.38;;;;;;;12.11;54.76;100623.44;4975394;28;101791;-82
2022/03/16 01:52:31;;;;;;;31.23;19.20;;;;;;;11.92;54.77;100612.69;4944339;28;96753;-83
2022/03/16 01:54:58;;;;;;;27.95;18.48;;;;;;;11.97;55.09;100639.69;4946253;28;96930;-82
2022/03/16 01:57:24;;;;;;;35.40;21.45;;;;;;;11.75;55.30;100621.16;4959608;28;101054;-83
2022/03/16 01:59:50;;;;;;;33.47;20.58;;;;;;;11.64;55.68;100633.81;4988304;28;100757;-83
2022/03/16 02:02:16;;;;;;;31.10;21.00;;;;;;;11.48;55.70;100638.69;4965455;28;97967;-83
2022/03/16 02:04:43;;;;;;;29.30;19.85;;;;;;;11.29;56.93;100663.88;4979131;28;97257;-83
2022/03/16 02:07:09;;;;;;;31.17;19.48;;;;;;;11.16;57.37;100652.88;4993612;28;97503;-80
2022/03/16 02:09:35;;;;;;;26.92;16.48;;;;;;;11.27;57.18;100663.03;4998814;28;101281;-82
2022/03/16 02:12:00;;;;;;;23.80;16.17;;;;;;;11.28;57.32;100662.97;4953752;28;96921;-83
2022/03/16 02:14:26;;;;;;;19.33;14.57;;;;;;;11.18;58.17;100648.44;4963942;28;97281;-83
2022/03/16 02:16:52;;;;;;;19.40;14.07;;;;;;;11.23;58.34;100662.28;4966820;28;100811;-82
2022/03/16 02:19:17;;;;;;;17.13;13.48;;;;;;;11.20;58.24;100662.38;5021076;28;97829;-82
2022/03/16 02:21:46;;;;;;;18.75;13.73;;;;;;;11.10;59.05;100676.69;4992452;28;97294;-82
2022/03/16 02:24:12;;;;;;;19.67;13.73;;;;;;;11.15;59.11;100684.44;4976577;28;97263;-81
2022/03/16 02:26:39;;;;;;;20.80;15.27;;;;;;;11.17;58.82;100677.38;4978175;28;101367;-84
2022/03/16 02:29:05;;;;;;;18.52;14.00;;;;;;;10.99;59.22;100671.75;5023590;28;98485;-82
2022/03/16 02:31:31;;;;;;;22.63;13.93;;;;;;;11.01;59.41;100674.34;4985114;28;96747;-82
2022/03/16 02:33:57;;;;;;;18.23;13.80;;;;;;;11.07;59.64;100682.91;4984343;28;97224;-83
2022/03/16 02:36:22;;;;;;;21.27;15.20;;;;;;;11.15;60.00;100700.22;4992356;28;101052;-83
2022/03/16 02:38:48;;;;;;;19.52;14.27;;;;;;;11.06;60.03;100691.69;4978615;28;101384;-82
2022/03/16 02:41:13;;;;;;;18.23;13.93;;;;;;;10.98;60.21;100709.44;4989953;28;97194;-82
2022/03/16 02:43:39;;;;;;;18.23;13.02;;;;;;;10.97;60.55;100705.13;4987748;28;97436;-83
2022/03/16 02:46:05;;;;;;;19.85;13.88;;;;;;;11.07;60.75;100718.84;4969544;28;99483;-83
2022/03/16 02:48:31;;;;;;;17.67;13.95;;;;;;;11.05;60.55;100721.53;4962531;28;101454;-83
2022/03/16 02:50:57;;;;;;;21.20;13.02;;;;;;;11.09;60.35;100725.75;5031251;27;96799;-83
2022/03/16 02:53:23;;;;;;;18.23;12.57;;;;;;;11.10;60.50;100727.47;5001380;28;97211;-83
2022/03/16 02:55:49;;;;;;;15.50;12.45;;;;;;;11.10;60.35;100729.25;5006006;28;102015;-83
2022/03/16 02:58:16;;;;;;;18.50;12.82;;;;;;;10.99;60.36;100721.66;4998782;28;98104;-82
2022/03/16 03:00:42;;;;;;;18.80;12.73;;;;;;;11.11;60.26;100733.59;4981395;28;96902;-82
2022/03/16 03:03:08;;;;;;;16.85;13.23;;;;;;;11.06;60.84;100725.84;4984698;28;96926;-82
2022/03/16 03:05:33;;;;;;;14.77;11.52;;;;;;;11.04;60.75;100737.31;4967170;28;100371;-82
2022/03/16 03:08:01;;;;;;;16.63;12.73;;;;;;;10.94;60.81;100726.22;5015045;28;97052;-83
2022/03/16 03:10:27;;;;;;;14.98;11.88;;;;;;;11.09;60.50;100741.53;4986196;28;97002;-82
2022/03/16 03:12:53;;;;;;;16.00;12.07;;;;;;;11.13;60.47;100744.06;5020668;28;97185;-82
2022/03/16 03:15:19;;;;;;;14.52;11.15;;;;;;;11.10;60.61;100750.25;4980716;28;101459;-82
2022/03/16 03:17:45;;;;;;;16.63;12.20;;;;;;;11.09;60.65;100743.28;4965186;28;101053;-82
2022/03/16 03:20:12;;;;;;;16.48;12.25;;;;;;;11.17;60.49;100750.94;5002469;28;97008;-83
2022/03/16 03:22:38;;;;;;;18.23;13.02;;;;;;;11.14;60.23;100754.53;4975803;28;97058;-82
2022/03/16 03:25:05;;;;;;;15.18;11.93;;;;;;;10.94;60.18;100731.47;4978074;28;101473;-82
2022/03/16 03:27:32;;;;;;;14.45;11.13;;;;;;;10.98;60.79;100769.88;5013751;28;98079;-82
2022/03/16 03:29:58;;;;;;;16.35;11.73;;;;;;;10.94;60.54;100756.84;4996531;28;96738;-83
2022/03/16 03:32:23;;;;;;;15.95;12.13;;;;;;;10.97;59.90;100773.41;4996917;28;97218;-82
2022/03/16 03:34:51;;;;;;;15.68;12.60;;;;;;;10.92;60.13;100762.16;5005286;28;101794;-82
2022/03/16 03:37:18;;;;;;;14.20;10.45;;;;;;;10.98;60.20;100776.91;5001509;28;101635;-82
2022/03/16 03:39:44;;;;;;;16.80;11.95;;;;;;;10.91;60.03;100768.34;4995317;28;97052;-83
2022/03/16 03:42:10;;;;;;;15.93;11.98;;;;;;;10.99;60.02;100776.84;4985270;28;97329;-83
2022/03/16 03:44:37;;;;;;;13.80;11.38;;;;;;;11.01;59.85;100777.66;4979897;28;101208;-83
2022/03/16 03:47:07;;;;;;;14.50;11.23;;;;;;;10.94;59.89;100773.50;5003311;27;101206;-82
2022/03/16 03:49:34;;;;;;;14.23;11.40;;;;;;;10.94;59.76;100783.13;5011032;28;96797;-81
2022/03/16 03:51:59;;;;;;;16.45;11.48;;;;;;;10.87;60.26;100777.19;5006224;28;96826;-82
2022/03/16 03:54:25;;;;;;;16.67;12.38;;;;;;;10.89;60.20;100785.91;4987537;28;97354;-82
2022/03/16 03:56:51;;;;;;;14.52;11.40;;;;;;;10.88;59.70;100792.91;5010721;28;98583;-82
2022/03/16 03:59:16;;;;;;;12.77;10.75;;;;;;;10.87;59.84;100787.69;4983189;28;96793;-80
2022/03/16 04:01:42;;;;;;;14.10;11.57;;;;;;;10.88;59.83;100797.31;5008763;28;96815;-82
2022/03/16 04:04:07;;;;;;;15.30;12.00;;;;;;;10.91;59.38;100786.72;4985214;28;100844;-82
2022/03/16 04:06:33;;;;;;;13.43;11.40;;;;;;;10.85;59.77;100798.25;5022973;27;101261;-82
2022/03/16 04:08:59;;;;;;;18.00;11.63;;;;;;;10.92;59.73;100801.56;5001304;28;96867;-82
2022/03/16 04:11:24;;;;;;;13.55;10.45;;;;;;;10.91;60.03;100801.59;4992957;28;96847;-82
2022/03/16 04:13:50;;;;;;;15.48;12.45;;;;;;;10.89;60.50;100814.78;4976314;28;100948;-82
2022/03/16 04:16:16;;;;;;;14.27;11.35;;;;;;;10.97;60.11;100825.09;4994849;28;100121;-82
2022/03/16 04:18:41;;;;;;;17.38;12.25;;;;;;;10.92;60.44;100819.94;5020124;27;96933;-83
2022/03/16 04:21:07;;;;;;;14.20;11.85;;;;;;;10.95;61.07;100840.03;5027937;28;97367;-83
2022/03/16 04:23:32;;;;;;;15.75;12.82;;;;;;;11.00;60.74;100838.16;4986222;28;101400;-83
2022/03/16 04:25:58;;;;;;;14.18;11.52;;;;;;;10.93;60.52;100826.91;4997514;28;101197;-83
2022/03/16 04:28:23;;;;;;;15.95;11.90;;;;;;;10.96;60.28;100836.47;5001772;28;97315;-84
2022/03/16 04:30:49;;;;;;;14.30;12.02;;;;;;;10.84;61.05;100849.03;4962923;28;97027;-83
2022/03/16 04:33:15;;;;;;;13.88;12.00;;;;;;;10.70;61.58;100824.06;4978686;28;101197;-84
2022/03/16 04:35:40;;;;;;;18.48;12.05;;;;;;;10.84;61.44;100853.44;5013006;28;97380;-84
2022/03/16 04:38:08;;;;;;;15.55;11.77;;;;;;;10.84;61.42;100856.06;4979616;28;96753;-84
2022/03/16 04:40:34;;;;;;;16.75;12.63;;;;;;;10.77;61.32;100828.25;4996483;28;97089;-83
2022/03/16 04:42:59;;;;;;;15.13;12.68;;;;;;;10.83;61.92;100863.09;4998784;28;100235;-84
2022/03/16 04:45:25;;;;;;;18.65;12.82;;;;;;;10.83;62.02;100864.84;5036733;27;97511;-83
2022/03/16 04:47:51;;;;;;;16.02;13.77;;;;;;;10.73;61.88;100845.84;4968576;28;97158;-84
2022/03/16 04:50:16;;;;;;;19.75;13.60;;;;;;;10.79;62.66;100871.06;4980803;28;97274;-84
2022/03/16 04:52:47;;;;;;;15.77;12.98;;;;;;;10.77;62.46;100873.75;4985243;28;97754;-84
2022/03/16 04:55:13;;;;;;;17.33;13.15;;;;;;;10.88;62.02;100878.75;5002925;27;101599;-84
2022/03/16 04:57:38;;;;;;;16.98;13.02;;;;;;;10.83;62.11;100891.13;5005412;28;97181;-84
2022/03/16 05:00:05;;;;;;;15.68;13.93;;;;;;;10.90;62.25;100884.78;4978572;28;97282;-84
2022/03/16 05:02:31;;;;;;;18.02;14.50;;;;;;;10.80;62.51;100886.81;4991381;28;101205;-83
2022/03/16 05:04:57;;;;;;;17.30;13.50;;;;;;;10.72;62.79;100880.88;4986725;28;101520;-84
2022/03/16 05:07:22;;;;;;;16.25;13.20;;;;;;;10.79;62.95;100889.47;4997272;28;97038;-84
2022/03/16 05:09:48;;;;;;;14.45;12.40;;;;;;;10.84;62.61;100890.22;5005053;28;97268;-84
2022/03/16 05:12:13;;;;;;;22.85;15.30;;;;;;;10.81;63.36;100892.91;4990757;28;98058;-84
2022/03/16 05:14:39;;;;;;;18.80;14.48;;;;;;;10.75;62.80;100878.19;4990232;28;97463;-84
2022/03/16 05:17:04;;;;;;;19.48;14.27;;;;;;;10.84;62.80;100898.09;4959839;28;96823;-83
2022/03/16 05:19:31;;;;;;;19.00;15.13;;;;;;;10.90;63.01;100904.94;5006774;28;96959;-84
2022/03/16 05:21:56;;;;;;;19.30;14.93;;;;;;;10.80;63.48;100899.94;5020136;28;98020;-83
2022/03/16 05:24:23;;;;;;;24.40;15.32;;;;;;;10.83;62.92;100901.63;4983850;28;101460;-83
2022/03/16 05:26:52;;;;;;;23.38;17.10;;;;;;;10.82;63.13;100894.63;4985298;28;96970;-83
2022/03/16 05:29:18;;;;;;;19.85;15.93;;;;;;;10.86;62.78;100910.28;4978526;28;96819;-84
2022/03/16 05:31:44;;;;;;;23.80;16.17;;;;;;;10.87;62.90;100908.50;4961272;28;101145;-84
2022/03/16 05:34:09;;;;;;;21.13;16.33;;;;;;;10.86;62.81;100912.06;4979425;28;100317;-85
2022/03/16 05:36:35;;;;;;;23.38;17.23;;;;;;;10.85;63.31;100919.06;5012225;28;97213;-84
2022/03/16 05:39:01;;;;;;;22.27;16.92;;;;;;;10.88;63.01;100918.13;4996470;28;97656;-84
2022/03/16 05:41:26;;;;;;;20.88;16.20;;;;;;;10.85;63.41;100913.81;4976380;28;100230;-84
2022/03/16 05:43:52;;;;;;;22.15;17.17;;;;;;;10.90;63.48;100918.94;4993146;28;101398;-84
2022/03/16 05:46:18;;;;;;;23.15;17.73;;;;;;;10.94;63.17;100927.59;4990589;28;96907;-85
2022/03/16 05:48:43;;;;;;;26.23;18.58;;;;;;;10.87;63.55;100927.75;4991205;28;97108;-83
2022/03/16 05:51:09;;;;;;;21.92;19.02;;;;;;;10.82;63.80;100931.41;4993819;28;101965;-84
2022/03/16 05:53:35;;;;;;;22.50;16.77;;;;;;;10.77;63.74;100922.78;4989167;28;101414;-85
2022/03/16 05:56:01;;;;;;;28.30;19.40;;;;;;;10.77;63.77;100935.94;5003125;28;96725;-84
2022/03/16 05:58:27;;;;;;;26.73;19.73;;;;;;;10.69;64.05;100941.34;4979819;28;96913;-84
2022/03/16 06:00:52;;;;;;;23.63;18.83;;;;;;;10.67;64.04;100943.16;4997087;28;101629;-85
2022/03/16 06:03:18;;;;;;;27.13;19.77;;;;;;;10.78;64.19;100948.16;5010399;28;101267;-86
2022/03/16 06:05:43;;;;;;;21.45;17.65;;;;;;;10.78;64.25;100950.78;4995447;28;97113;-88
2022/03/16 06:08:09;;;;;;;25.23;19.25;;;;;;;10.70;63.99;100945.69;5003846;28;96958;-91
2022/03/16 06:10:35;;;;;;;27.60;19.23;;;;;;;10.65;64.20;100937.94;4992198;28;98384;-93
2022/03/16 06:13:02;;;;;;;25.13;19.52;;;;;;;10.74;64.44;100951.75;5018608;28;98280;-91
2022/03/16 06:15:30;;;;;;;25.45;18.88;;;;;;;10.78;64.32;100953.41;4984809;28;97272;-90
2022/03/16 06:17:58;;;;;;;27.08;19.35;;;;;;;10.79;64.73;100965.63;5009990;28;97097;-87
2022/03/16 06:20:25;;;;;;;25.98;19.80;;;;;;;10.77;64.39;100954.31;4998155;28;101266;-84
2022/03/16 06:22:50;;;;;;;25.80;19.25;;;;;;;10.66;64.36;100938.81;4984365;28;98974;-87
2022/03/16 06:25:16;;;;;;;26.88;19.52;;;;;;;10.76;64.39;100961.31;4987440;28;97064;-84
2022/03/16 06:27:42;;;;;;;31.13;20.20;;;;;;;10.69;64.25;100951.00;5016914;28;97094;-84
2022/03/16 06:30:08;;;;;;;26.20;19.88;;;;;;;10.80;64.55;100967.34;5014445;28;101623;-84
2022/03/16 06:32:34;;;;;;;30.05;21.08;;;;;;;10.82;64.27;100968.16;5003006;28;101359;-84
2022/03/16 06:34:59;;;;;;;34.45;22.70;;;;;;;10.86;63.86;100970.69;5023462;28;97110;-84
2022/03/16 06:37:25;;;;;;;31.95;21.67;;;;;;;10.83;63.95;100988.28;4995082;28;97501;-83
2022/03/16 06:39:50;;;;;;;28.40;21.23;;;;;;;10.72;64.54;100979.81;4973148;28;101216;-84
2022/03/16 06:42:16;;;;;;;26.80;21.15;;;;;;;10.77;64.40;100988.44;5021679;28;97479;-86
2022/03/16 06:44:41;;;;;;;28.23;21.58;;;;;;;10.78;64.09;100992.78;4985815;28;96918;-81
2022/03/16 06:47:07;;;;;;;30.45;22.15;;;;;;;10.81;64.49;101004.06;4981787;28;97196;-81
2022/03/16 06:49:33;;;;;;;37.53;23.05;;;;;;;10.77;64.22;101006.81;4965307;28;101781;-86
2022/03/16 06:51:58;;;;;;;35.63;23.30;;;;;;;10.81;63.99;101018.97;5017680;28;98149;-86
2022/03/16 06:54:24;;;;;;;34.47;24.63;;;;;;;10.74;64.02;101009.53;4996508;28;98167;-85
2022/03/16 06:56:49;;;;;;;36.67;23.80;;;;;;;10.86;63.88;101028.47;5000446;28;96924;-84
2022/03/16 06:59:15;;;;;;;36.35;26.20;;;;;;;10.78;63.92;101030.41;5015429;28;98262;-85
2022/03/16 07:01:41;;;;;;;36.38;25.20;;;;;;;10.79;64.52;101031.25;5013371;28;98058;-86
2022/03/16 07:04:06;;;;;;;41.30;26.83;;;;;;;10.71;64.02;101014.84;4980629;28;97091;-86
2022/03/16 07:06:32;;;;;;;42.67;29.25;;;;;;;10.61;63.99;101009.78;5010531;28;97488;-84
2022/03/16 07:08:57;;;;;;;36.70;27.60;;;;;;;10.79;64.20;101028.63;5017548;28;98014;-84
2022/03/16 07:11:23;;;;;;;41.45;28.83;;;;;;;10.85;64.29;101034.63;4979490;28;101847;-85
2022/03/16 07:16:33;;;;;;;41.35;30.38;;;;;;;10.90;64.25;101044.16;5000078;28;96799;-84
2022/03/16 07:19:00;;;;;;;48.08;30.73;;;;;;;10.92;63.84;101037.97;4988896;28;101666;-84
2022/03/16 07:21:25;;;;;;;41.15;29.38;;;;;;;10.81;64.10;101019.84;4997263;28;99037;-84
2022/03/16 07:23:51;;;;;;;42.78;30.92;;;;;;;10.94;63.94;101022.16;5013998;28;97404;-85
2022/03/16 07:26:16;;;;;;;42.85;31.30;;;;;;;11.17;63.83;101051.38;4997679;28;97491;-84
2022/03/16 07:28:42;;;;;;;49.15;31.65;;;;;;;11.34;63.53;101061.44;4987609;28;98072;-84
2022/03/16 07:31:08;;;;;;;42.90;31.60;;;;;;;11.41;63.33;101056.91;4999496;28;98316;-84
2022/03/16 07:33:34;;;;;;;42.13;29.23;;;;;;;11.37;63.15;101052.63;4984055;28;97278;-84
2022/03/16 07:36:01;;;;;;;48.00;33.22;;;;;;;11.48;63.14;101066.34;5016900;28;97102;-84
2022/03/16 07:38:26;;;;;;;45.03;33.55;;;;;;;11.51;62.31;101074.16;5050244;27;96847;-84
2022/03/16 07:40:52;;;;;;;47.83;35.30;;;;;;;11.44;62.21;101069.97;4997065;28;100668;-85
2022/03/16 07:43:17;;;;;;;50.30;36.53;;;;;;;11.56;61.72;101077.53;4989584;28;96733;-85
2022/03/16 07:45:43;;;;;;;43.10;33.90;;;;;;;11.52;61.61;101074.13;4998079;28;98081;-85
2022/03/16 07:48:09;;;;;;;47.53;34.42;;;;;;;11.57;61.47;101077.50;5022402;28;97982;-85
2022/03/16 07:50:34;;;;;;;48.17;37.97;;;;;;;11.68;61.86;101076.34;4973505;28;100204;-84
2022/03/16 07:53:00;;;;;;;52.92;38.92;;;;;;;11.84;61.67;101082.94;4969328;28;97980;-83
2022/03/16 07:55:27;;;;;;;53.53;39.70;;;;;;;12.03;61.67;101085.09;5000967;28;97320;-84
2022/03/16 07:57:54;;;;;;;52.70;40.47;;;;;;;12.21;61.39;101089.81;4972048;28;100894;-84
2022/03/16 08:00:20;;;;;;;53.83;39.13;;;;;;;12.19;61.33;101089.88;4966442;28;102010;-79
2022/03/16 08:02:46;;;;;;;48.35;38.95;;;;;;;12.30;60.85;101094.81;5015399;28;96717;-79
2022/03/16 08:05:13;;;;;;;49.85;39.80;;;;;;;12.40;60.12;101104.19;4991793;28;96708;-77
2022/03/16 08:07:39;;;;;;;51.97;39.10;;;;;;;12.32;59.68;101081.63;5007690;28;98080;-82
2022/03/16 08:10:05;;;;;;;50.30;38.72;;;;;;;12.36;59.96;101078.88;4974937;28;101488;-81
2022/03/16 08:12:31;;;;;;;55.08;40.75;;;;;;;12.50;59.36;101083.72;5000674;28;96895;-82
2022/03/16 08:14:57;;;;;;;53.05;40.08;;;;;;;12.73;59.32;101090.06;4993732;28;96868;-81
2022/03/16 08:17:23;;;;;;;50.00;39.05;;;;;;;12.93;58.57;101094.72;4980144;28;101562;-81
2022/03/16 08:19:48;;;;;;;52.55;37.90;;;;;;;12.98;58.58;101077.84;4982687;28;101397;-85
2022/03/16 08:22:29;;;;;;;46.15;35.97;;;;;;;13.31;58.19;101083.81;4948957;28;97124;-87
2022/03/16 08:24:56;;;;;;;49.22;38.05;;;;;;;13.50;57.35;101070.88;4935847;28;97530;-82
2022/03/16 08:27:23;;;;;;;45.63;36.83;;;;;;;13.92;56.76;101090.53;4941942;28;101179;-87
2022/03/16 08:29:49;;;;;;;47.95;38.25;;;;;;;14.22;56.13;101099.13;4936299;28;100979;-82
2022/03/16 08:32:15;;;;;;;45.90;37.40;;;;;;;14.43;55.41;101092.19;4941127;28;96805;-83
2022/03/16 08:34:41;;;;;;;46.20;37.08;;;;;;;14.74;55.03;101096.31;4955316;28;96863;-82
2022/03/16 08:37:06;;;;;;;44.13;36.05;;;;;;;15.00;53.92;101103.22;4967711;28;101763;-82
2022/03/16 08:39:32;;;;;;;49.83;40.88;;;;;;;15.01;53.13;101082.03;4934270;28;97851;-83
2022/03/16 08:41:58;;;;;;;55.53;41.30;;;;;;;15.28;52.45;101077.38;4949333;28;97351;-82
2022/03/16 08:44:23;;;;;;;44.50;36.25;;;;;;;15.68;51.65;101098.66;4951097;28;97332;-85
2022/03/16 08:46:53;;;;;;;47.28;35.55;;;;;;;15.95;51.34;101105.41;4962275;28;100987;-86
2022/03/16 08:49:18;;;;;;;41.33;33.53;;;;;;;16.12;50.72;101104.69;4942901;28;100656;-84
2022/03/16 08:51:44;;;;;;;47.00;33.03;;;;;;;16.25;49.72;101086.44;4948929;28;96845;-83
2022/03/16 08:54:10;;;;;;;36.58;29.85;;;;;;;16.56;49.67;101120.34;4963612;28;97111;-81
2022/03/16 08:56:36;;;;;;;40.13;32.22;;;;;;;16.61;48.60;101109.50;4945173;28;101763;-80
2022/03/16 08:59:02;;;;;;;38.47;32.65;;;;;;;16.74;48.08;101100.06;4958377;28;97994;-80
2022/03/16 09:01:28;;;;;;;40.70;32.97;;;;;;;16.79;47.61;101079.53;4937551;28;97349;-81
2022/03/16 09:03:53;;;;;;;42.45;32.67;;;;;;;17.19;47.51;101118.25;4944207;28;97260;-79
2022/03/16 09:06:20;;;;;;;39.72;31.58;;;;;;;17.41;47.22;101128.63;4938866;28;101161;-81
2022/03/16 09:08:46;;;;;;;42.90;31.80;;;;;;;17.56;46.84;101128.81;4918171;28;101055;-81
2022/03/16 09:11:11;;;;;;;39.00;32.53;;;;;;;17.38;46.18;101126.13;4918379;28;97463;-81
2022/03/16 09:13:37;;;;;;;39.92;32.15;;;;;;;17.18;46.05;101128.91;4974047;28;97231;-80
2022/03/16 09:16:03;;;;;;;39.58;30.52;;;;;;;17.15;46.04;101135.22;4956110;28;99985;-80
2022/03/16 09:18:29;;;;;;;41.08;33.08;;;;;;;17.23;46.35;101145.47;4945201;28;97519;-80
2022/03/16 09:20:55;;;;;;;40.13;31.92;;;;;;;17.29;46.23;101133.69;4943851;28;96856;-87
2022/03/16 09:23:21;;;;;;;41.67;33.25;;;;;;;17.46;46.38;101130.22;4974274;28;96969;-87
2022/03/16 09:25:47;;;;;;;43.22;31.27;;;;;;;17.57;45.70;101149.97;4974299;28;101663;-91
2022/03/16 09:28:12;;;;;;;48.03;32.33;;;;;;;17.75;45.09;101150.00;4947585;28;100152;-82
2022/03/16 09:30:38;;;;;;;40.90;30.98;;;;;;;17.98;44.63;101147.03;4991449;28;98167;-82
2022/03/16 09:33:04;;;;;;;37.22;30.70;;;;;;;18.17;43.95;101141.59;4964154;28;97350;-82
2022/03/16 09:35:31;;;;;;;41.35;31.33;;;;;;;18.22;43.57;101138.72;4993075;28;98045;-84
2022/03/16 09:38:00;;;;;;;40.30;30.27;;;;;;;18.39;43.36;101140.50;4952084;28;101966;-87
2022/03/16 09:40:26;;;;;;;38.03;29.00;;;;;;;18.51;42.67;101145.13;4961009;28;96836;-85
2022/03/16 09:42:52;;;;;;;37.17;30.13;;;;;;;18.63;42.35;101156.91;4947751;28;96890;-85
2022/03/16 09:45:20;;;;;;;39.50;28.83;;;;;;;18.65;42.15;101153.22;4951241;28;100386;-83
2022/03/16 09:47:47;;;;;;;36.92;29.13;;;;;;;18.72;42.29;101159.06;4981365;28;98353;-84
2022/03/16 09:50:12;;;;;;;35.50;28.30;;;;;;;18.78;41.98;101159.59;4990619;28;96747;-84
2022/03/16 09:52:39;;;;;;;39.65;28.63;;;;;;;18.61;41.17;101140.16;4982576;28;97232;-84
2022/03/16 09:55:06;;;;;;;43.40;29.55;;;;;;;18.86;41.35;101164.50;5007082;28;98003;-83
2022/03/16 09:57:34;;;;;;;33.92;27.65;;;;;;;18.91;41.03;101170.44;5005774;28;98292;-83
2022/03/16 10:00:01;;;;;;;39.13;28.85;;;;;;;18.84;40.82;101154.91;4984375;28;97438;-83
2022/03/16 10:02:31;;;;;;;40.28;28.75;;;;;;;19.11;40.59;101174.66;4959462;28;97259;-81
2022/03/16 10:04:56;;;;;;;38.10;30.95;;;;;;;19.15;40.03;101172.66;4952074;28;101646;-83
2022/03/16 10:07:29;;;;;;;38.38;28.17;;;;;;;19.19;39.70;101160.91;4972032;28;101365;-91
2022/03/16 10:15:25;;;;;;;35.13;26.60;;;;;;;19.16;39.53;101171.72;4966088;28;100431;-88
2022/03/16 10:17:59;;;;;;;32.63;25.77;;;;;;;19.16;39.68;101169.91;4969652;28;100138;-87
2022/03/16 10:20:28;;;;;;;31.35;24.85;;;;;;;19.10;39.89;101156.94;4981949;28;97082;-87
2022/03/16 10:22:57;;;;;;;30.48;23.52;;;;;;;19.15;39.71;101172.66;4980188;28;96880;-86
2022/03/16 10:25:23;;;;;;;33.88;26.02;;;;;;;18.99;39.74;101172.66;4947216;28;101496;-85
2022/03/16 10:27:49;;;;;;;31.73;26.13;;;;;;;18.98;39.97;101181.59;4941107;28;101494;-86
2022/03/16 10:30:14;;;;;;;29.85;26.52;;;;;;;18.94;39.67;101196.88;4970662;28;96726;-91
2022/03/16 10:32:52;;;;;;;28.52;25.42;;;;;;;18.84;39.65;101187.66;4991420;28;96939;-89
2022/03/16 10:35:17;;;;;;;30.77;23.83;;;;;;;18.69;39.66;101193.78;5000406;28;98563;-90
2022/03/16 10:37:47;;;;;;;27.85;23.52;;;;;;;18.59;39.43;101188.13;4940655;28;102065;-87
2022/03/16 10:40:20;;;;;;;23.67;21.13;;;;;;;18.42;39.51;101207.63;4959234;28;96718;-88
2022/03/16 10:48:19;;;;;;;26.48;21.45;;;;;;;18.19;39.74;101200.00;4992457;28;97602;-81
2022/03/16 10:50:46;;;;;;;28.00;23.73;;;;;;;17.82;39.45;101178.81;4939623;28;97319;-81
2022/03/16 10:53:16;;;;;;;24.58;21.50;;;;;;;17.84;39.85;101198.19;4935805;28;97294;-83
2022/03/16 10:55:46;;;;;;;22.63;20.10;;;;;;;17.58;39.94;101180.88;4960817;28;101208;-82
2022/03/16 10:58:12;;;;;;;23.85;20.55;;;;;;;17.49;39.50;101199.06;4971378;28;98262;-82
2022/03/16 11:00:39;;;;;;;26.33;22.13;;;;;;;17.53;39.91;101204.13;4980074;28;97178;-82
2022/03/16 11:03:10;;;;;;;24.85;21.25;;;;;;;17.40;40.18;101205.69;4944515;28;96967;-81
2022/03/16 11:05:36;;;;;;;28.05;23.42;;;;;;;17.37;40.01;101206.69;4960063;28;101032;-83
2022/03/16 11:08:08;;;;;;;26.27;22.33;;;;;;;17.24;40.17;101199.38;4998406;28;98373;-83
2022/03/16 11:10:38;;;;;;;27.33;22.17;;;;;;;16.90;40.53;101196.56;4974209;28;97259;-82
2022/03/16 11:15:50;;;;;;;25.30;22.55;;;;;;;16.81;40.91;101202.25;4990185;28;97895;-81
2022/03/16 11:18:18;;;;;;;29.27;23.50;;;;;;;16.75;41.12;101207.81;4959086;28;100988;-82